Ocean Star — VRCT3 — position and weather

sailwx.info

Track history (hours):
 
Tides and Currents Weather Stations Pressure Air Temp Water Temp Dewpoint Dewpoint Depression Visibility Wind Speed Wind Dir Waves Ship Positions

Ocean Star

Last reported at 2017-Sep-21 15:27 UTC. Time now 2017-Sep-21 15:52 UTC.
Position N 32°06' W 081°06'.

Length 177 m; draft 6.5 m.

Type: Cargo ship. MMSI: 477797100.

Date/timePositionNaut miles runAvg speedWind from/ knotsBaromVisibWave heightAir tempDewpointWater temp
2017-Sep-21 15:27N 32°06' W 081°06'0 0.0
2017-Sep-21 14:57N 32°06' W 081°06'0 0.0
2017-Sep-21 14:27N 32°06' W 081°06'0 0.0
2017-Sep-21 13:57N 32°06' W 081°06'0 0.0
2017-Sep-21 13:27N 32°06' W 081°06'0 0.0
2017-Sep-21 12:57N 32°06' W 081°06'0 0.0
2017-Sep-21 12:27N 32°06' W 081°06'0 0.0
2017-Sep-21 11:57N 32°06' W 081°06'0 0.0
2017-Sep-21 10:45N 32°06' W 081°06'0 0.0
2017-Sep-21 10:21N 32°06' W 081°06'0 0.0
2017-Sep-21 09:45N 32°06' W 081°06'0 0.0
2017-Sep-21 09:27N 32°06' W 081°06'0 0.0
2017-Sep-21 08:57N 32°06' W 081°06'0 0.0
2017-Sep-21 08:27N 32°06' W 081°06'0 0.0
2017-Sep-21 07:57N 32°06' W 081°06'0 0.0
2017-Sep-21 07:27N 32°06' W 081°06'0 0.0
2017-Sep-21 06:45N 32°06' W 081°06'0 0.0
2017-Sep-21 06:27N 32°06' W 081°06'0 0.0
2017-Sep-21 05:57N 32°06' W 081°06'0 0.0
2017-Sep-21 05:21N 32°06' W 081°06'0 0.0
2017-Sep-21 04:57N 32°06' W 081°06'0 0.0
2017-Sep-21 04:21N 32°06' W 081°06'0 0.0
2017-Sep-21 03:51N 32°06' W 081°06'0 0.0
2017-Sep-21 03:27N 32°06' W 081°06'0 0.0
2017-Sep-21 02:57N 32°06' W 081°06'0 0.0
2017-Sep-21 02:27N 32°06' W 081°06'0 0.0
2017-Sep-21 01:57N 32°06' W 081°06'1 1.9
2017-Sep-21 01:31N 32°06' W 081°07'1 2.6
2017-Sep-21 01:00N 32°05' W 081°06'3 5.9
2017-Sep-21 00:31N 32°05' W 081°03'3 6.7
2017-Sep-21 00:01N 32°05' W 080°59'611.7
2017-Sep-20 23:30N 32°02' W 080°52'613.2
2017-Sep-20 23:00N 31°59' W 080°45'5 9.6
2017-Sep-20 22:30N 31°58' W 080°40'611.6
2017-Sep-20 22:00N 31°59' W 080°33'510.9
2017-Sep-20 21:30N 31°59' W 080°27'4 7.6
2017-Sep-20 21:00N 31°59' W 080°22'612.3
2017-Sep-20 20:30N 31°60' W 080°15'714.1
2017-Sep-20 20:00N 32°01' W 080°07'714.3
2017-Sep-20 19:31N 32°03' W 079°59'714.2
2017-Sep-20 19:00N 32°06' W 079°51'914.1
2017-Sep-20 18:24N 32°09' W 079°41'2813.8
2017-Sep-20 16:22N 32°18' W 079°10'513.9
2017-Sep-20 16:00N 32°20' W 079°05'14613.9
2017-Sep-20 05:31N 33°51' W 076°50'013.8
2017-Sep-20 05:30N 33°51' W 076°50'1014.4
2017-Sep-20 04:49N 33°58' W 076°41'514.3
2017-Sep-20 04:30N 34°01' W 076°37'714.1
2017-Sep-20 04:00N 34°06' W 076°30'714.3
2017-Sep-20 03:30N 34°10' W 076°24'714.5
2017-Sep-20 03:00N 34°15' W 076°17'714.4
2017-Sep-20 02:30N 34°20' W 076°11'22412.9
2017-Sep-19 09:05N 37°55' W 074°53'613.0
2017-Sep-19 08:36N 38°01' W 074°51'513.3
2017-Sep-19 08:12N 38°07' W 074°50'314.0
2017-Sep-19 08:00N 38°09' W 074°49'713.7
2017-Sep-19 07:30N 38°16' W 074°47'714.1
2017-Sep-19 07:00N 38°23' W 074°45'612.5
2017-Sep-19 06:28N 38°29' W 074°46'713.1
2017-Sep-19 05:58N 38°35' W 074°51'613.6
2017-Sep-19 05:30N 38°40' W 074°56'714.6
2017-Sep-19 05:00N 38°46' W 075°02'713.4
2017-Sep-19 04:30N 38°52' W 075°05'715.2
2017-Sep-19 04:00N 38°59' W 075°08'714.7
2017-Sep-19 03:30N 39°06' W 075°12'713.9
2017-Sep-19 03:00N 39°12' W 075°17'613.0
2017-Sep-19 02:30N 39°17' W 075°21'612.0
2017-Sep-19 02:00N 39°21' W 075°27'611.6
2017-Sep-19 01:30N 39°26' W 075°32'5 9.8
2017-Sep-19 01:00N 39°30' W 075°33'5 9.8
2017-Sep-19 00:30N 39°35' W 075°34'4 8.8
2017-Sep-19 00:01N 39°40' W 075°32'510.7
2017-Sep-18 23:30N 39°44' W 075°30'5 9.8
2017-Sep-18 23:00N 39°48' W 075°25'5 9.8
2017-Sep-18 22:30N 39°51' W 075°20'510.6
2017-Sep-18 22:00N 39°52' W 075°13'4 8.7
2017-Sep-18 21:30N 39°53' W 075°08'4 7.5
2017-Sep-18 21:00N 39°57' W 075°08'4 8.9
2017-Sep-18 20:30N 39°60' W 075°04'5 9.8
2017-Sep-18 20:00N 40°03' W 074°58'510.3
2017-Sep-18 19:30N 40°05' W 074°52'4 7.8
2017-Sep-18 19:01N 40°08' W 074°49'3 5.3
2017-Sep-18 18:30N 40°08' W 074°45'0 0.5
2017-Sep-18 18:00N 40°08' W 074°45'0 0.0
2017-Sep-18 17:30N 40°08' W 074°45'0 0.0
2017-Sep-18 17:00N 40°08' W 074°45'0 0.0
2017-Sep-18 16:30N 40°08' W 074°45'0 0.0
2017-Sep-18 16:00N 40°08' W 074°45'0 0.0
2017-Sep-18 15:30N 40°08' W 074°45'0 0.0
2017-Sep-18 15:00N 40°08' W 074°45'0 0.0
2017-Sep-18 14:30N 40°08' W 074°45'0 0.0
2017-Sep-18 14:00N 40°08' W 074°45'0 0.0
2017-Sep-18 13:30N 40°08' W 074°45'0 0.0
2017-Sep-18 12:57N 40°08' W 074°45'0 0.0
2017-Sep-18 12:30N 40°08' W 074°45'0 0.0
2017-Sep-18 11:57N 40°08' W 074°45'0 0.0
2017-Sep-18 11:27N 40°08' W 074°45'0 0.0
2017-Sep-18 11:00N 40°08' W 074°45'0 0.0
2017-Sep-18 10:30N 40°08' W 074°45'0 0.0
2017-Sep-18 10:00N 40°08' W 074°45'0 0.0
2017-Sep-18 09:30N 40°08' W 074°45'0 0.0
2017-Sep-18 09:00N 40°08' W 074°45'0 0.0
2017-Sep-18 08:30N 40°08' W 074°45'0 0.0
2017-Sep-18 08:00N 40°08' W 074°45'0 0.0
2017-Sep-18 07:30N 40°08' W 074°45'0 0.0
2017-Sep-18 07:00N 40°08' W 074°45'0 0.0
2017-Sep-18 06:30N 40°08' W 074°45'0 0.0
2017-Sep-18 06:00N 40°08' W 074°45'0 0.0
2017-Sep-18 05:30N 40°08' W 074°45'0 0.0
2017-Sep-18 05:00N 40°08' W 074°45'0 0.0
2017-Sep-18 04:30N 40°08' W 074°45'0 0.0
2017-Sep-18 04:00N 40°08' W 074°45'0 0.0
2017-Sep-18 03:30N 40°08' W 074°45'0 0.0
2017-Sep-18 03:00N 40°08' W 074°45'0 0.0
2017-Sep-18 02:30N 40°08' W 074°45'0 0.0
2017-Sep-18 02:00N 40°08' W 074°45'0 0.0
2017-Sep-18 01:30N 40°08' W 074°45'0 0.0
2017-Sep-18 00:57N 40°08' W 074°45'0 0.0
2017-Sep-18 00:27N 40°08' W 074°45'0 0.0
2017-Sep-18 00:00N 40°08' W 074°45'0 0.0
2017-Sep-17 23:30N 40°08' W 074°45'0 0.0
2017-Sep-17 23:00N 40°08' W 074°45'0 0.0
2017-Sep-17 22:30N 40°08' W 074°45'0 0.0
2017-Sep-17 22:00N 40°08' W 074°45'0 0.0
2017-Sep-17 21:27N 40°08' W 074°45'0 0.0
2017-Sep-17 21:00N 40°08' W 074°45'0 0.0
2017-Sep-17 20:27N 40°08' W 074°45'0 0.0
2017-Sep-17 20:00N 40°08' W 074°45'0 0.0
2017-Sep-17 19:30N 40°08' W 074°45'0 0.0
2017-Sep-17 19:00N 40°08' W 074°45'0 0.0
2017-Sep-17 18:27N 40°08' W 074°45'0 0.0
2017-Sep-17 18:00N 40°08' W 074°45'0 0.0
2017-Sep-17 17:30N 40°08' W 074°45'0 0.0
2017-Sep-17 17:00N 40°08' W 074°45'0 0.0
2017-Sep-17 16:30N 40°08' W 074°45'0 0.0
2017-Sep-17 16:00N 40°08' W 074°45'0 0.0
2017-Sep-17 15:30N 40°08' W 074°45'0 0.0
2017-Sep-17 14:57N 40°08' W 074°45'0 0.0
2017-Sep-17 14:30N 40°08' W 074°45'0 0.0
2017-Sep-17 14:00N 40°08' W 074°45'0 0.0
2017-Sep-17 13:30N 40°08' W 074°45'0 0.0
2017-Sep-17 13:00N 40°08' W 074°45'0 0.0
2017-Sep-17 12:30N 40°08' W 074°45'0 0.0
2017-Sep-17 12:00N 40°08' W 074°45'0 0.0
2017-Sep-17 11:30N 40°08' W 074°45'0 0.0
2017-Sep-17 11:00N 40°08' W 074°45'0 0.0
2017-Sep-17 10:30N 40°08' W 074°45'0 0.0
2017-Sep-17 10:00N 40°08' W 074°45'0 0.0
2017-Sep-17 09:30N 40°08' W 074°45'0 0.0
2017-Sep-17 09:00N 40°08' W 074°45'0 0.0
2017-Sep-17 08:30N 40°08' W 074°45'0 0.0
2017-Sep-17 08:00N 40°08' W 074°45'0 0.0
2017-Sep-17 07:30N 40°08' W 074°45'0 0.0
2017-Sep-17 07:00N 40°08' W 074°45'0 0.0
2017-Sep-17 06:30N 40°08' W 074°45'0 0.0
2017-Sep-17 06:00N 40°08' W 074°45'0 0.0
2017-Sep-17 05:30N 40°08' W 074°45'0 0.0
2017-Sep-17 05:00N 40°08' W 074°45'0 0.0
2017-Sep-17 04:30N 40°08' W 074°45'0 0.0
2017-Sep-17 03:54N 40°08' W 074°45'0 0.0
2017-Sep-17 03:30N 40°08' W 074°45'0 0.0
2017-Sep-17 02:57N 40°08' W 074°45'0 0.0
2017-Sep-17 02:30N 40°08' W 074°45'0 0.0
2017-Sep-17 02:00N 40°08' W 074°45'0 0.0
2017-Sep-17 01:30N 40°08' W 074°45'0 0.0
2017-Sep-17 01:00N 40°08' W 074°45'0 0.0
2017-Sep-17 00:30N 40°08' W 074°45'0 0.0
2017-Sep-17 00:00N 40°08' W 074°45'0 0.0
2017-Sep-16 23:30N 40°08' W 074°45'0 0.0
2017-Sep-16 23:00N 40°08' W 074°45'0 0.0
2017-Sep-16 22:30N 40°08' W 074°45'0 0.0
2017-Sep-16 22:00N 40°08' W 074°45'0 0.0
2017-Sep-16 21:30N 40°08' W 074°45'0 0.0
2017-Sep-16 21:00N 40°08' W 074°45'0 0.0
2017-Sep-16 20:30N 40°08' W 074°45'0 0.0
2017-Sep-16 20:00N 40°08' W 074°45'0 0.0
2017-Sep-16 19:30N 40°08' W 074°45'0 0.0
2017-Sep-16 19:00N 40°08' W 074°45'0 0.0
2017-Sep-16 18:30N 40°08' W 074°45'0 0.0
2017-Sep-16 18:00N 40°08' W 074°45'0 0.0
2017-Sep-16 17:30N 40°08' W 074°45'0 0.0
2017-Sep-16 17:00N 40°08' W 074°45'0 0.0
2017-Sep-16 16:30N 40°08' W 074°45'0 0.0
2017-Sep-16 16:00N 40°08' W 074°45'0 0.0
2017-Sep-16 15:30N 40°08' W 074°45'0 0.0
2017-Sep-16 15:00N 40°08' W 074°45'0 0.0
2017-Sep-16 14:30N 40°08' W 074°45'0 0.0
2017-Sep-16 14:00N 40°08' W 074°45'0 0.0
2017-Sep-16 13:30N 40°08' W 074°45'0 0.0
2017-Sep-16 13:00N 40°08' W 074°45'0 0.0
2017-Sep-16 12:30N 40°08' W 074°45'0 0.0
2017-Sep-16 11:57N 40°08' W 074°45'0 0.0
2017-Sep-16 11:30N 40°08' W 074°45'0 0.0
2017-Sep-16 11:00N 40°08' W 074°45'0 0.0
2017-Sep-16 10:30N 40°08' W 074°45'0 0.0
2017-Sep-16 10:00N 40°08' W 074°45'0 0.0
2017-Sep-16 09:30N 40°08' W 074°45'0 0.0
2017-Sep-16 09:00N 40°08' W 074°45'0 0.0
2017-Sep-16 08:30N 40°08' W 074°45'0 0.0
2017-Sep-16 08:00N 40°08' W 074°45'0 0.0
2017-Sep-16 07:30N 40°08' W 074°45'0 0.0
2017-Sep-16 07:00N 40°08' W 074°45'0 0.0
2017-Sep-16 06:30N 40°08' W 074°45'0 0.0
2017-Sep-16 06:00N 40°08' W 074°45'0 0.0
2017-Sep-16 05:30N 40°08' W 074°45'0 0.0
2017-Sep-16 05:00N 40°08' W 074°45'0 0.0
2017-Sep-16 04:30N 40°08' W 074°45'0 0.0
2017-Sep-16 04:00N 40°08' W 074°45'0 0.0
2017-Sep-16 03:30N 40°08' W 074°45'0 0.0
2017-Sep-16 03:00N 40°08' W 074°45'0 0.0
2017-Sep-16 02:30N 40°08' W 074°45'0 0.0
2017-Sep-16 02:00N 40°08' W 074°45'0 0.0
2017-Sep-16 01:30N 40°08' W 074°45'0 0.0
2017-Sep-16 01:00N 40°08' W 074°45'0 0.0
2017-Sep-16 00:30N 40°08' W 074°45'0 0.0
2017-Sep-15 23:57N 40°08' W 074°45'0 0.0
2017-Sep-15 23:30N 40°08' W 074°45'0 0.0
2017-Sep-15 23:00N 40°08' W 074°45'0 0.0
2017-Sep-15 22:30N 40°08' W 074°45'0 0.0
2017-Sep-15 22:00N 40°08' W 074°45'0 0.0
2017-Sep-15 21:30N 40°08' W 074°45'0 0.0
2017-Sep-15 21:00N 40°08' W 074°45'0 0.0
2017-Sep-15 20:30N 40°08' W 074°45'0 0.0
2017-Sep-15 20:00N 40°08' W 074°45'0 0.0
2017-Sep-15 19:30N 40°08' W 074°45'0 0.0
2017-Sep-15 19:00N 40°08' W 074°45'0 0.0
2017-Sep-15 18:30N 40°08' W 074°45'0 0.0
2017-Sep-15 18:00N 40°08' W 074°45'0 0.0
2017-Sep-15 17:30N 40°08' W 074°45'0 0.0
2017-Sep-15 17:00N 40°08' W 074°45'0 0.0
2017-Sep-15 16:30N 40°08' W 074°45'0 0.0
2017-Sep-15 16:00N 40°08' W 074°45'0 0.0
2017-Sep-15 15:30N 40°08' W 074°45'0 0.0
2017-Sep-15 15:00N 40°08' W 074°45'0 0.0
2017-Sep-15 14:27N 40°08' W 074°45'0 0.0
2017-Sep-15 13:57N 40°08' W 074°45'0 0.0
2017-Sep-15 13:30N 40°08' W 074°45'0 0.0
2017-Sep-15 13:00N 40°08' W 074°45'0 0.0
2017-Sep-15 12:30N 40°08' W 074°45'0 0.0
2017-Sep-15 12:00N 40°08' W 074°45'0 0.0
2017-Sep-15 11:30N 40°08' W 074°45'0 0.0
2017-Sep-15 11:00N 40°08' W 074°45'0 0.0
2017-Sep-15 10:30N 40°08' W 074°45'0 0.0
2017-Sep-15 10:00N 40°08' W 074°45'0 0.0
2017-Sep-15 09:27N 40°08' W 074°45'0 0.0
2017-Sep-15 08:57N 40°08' W 074°45'0 0.0
2017-Sep-15 08:30N 40°08' W 074°45'0 0.0
2017-Sep-15 08:00N 40°08' W 074°45'0 0.0
2017-Sep-15 07:30N 40°08' W 074°45'0 0.0
2017-Sep-15 07:00N 40°08' W 074°45'0 0.0
2017-Sep-15 06:30N 40°08' W 074°45'0 0.0
2017-Sep-15 06:00N 40°08' W 074°45'0 0.0
2017-Sep-15 04:24N 40°08' W 074°45'0 0.0
2017-Sep-15 04:00N 40°08' W 074°45'0 0.0
2017-Sep-15 03:30N 40°08' W 074°45'0 0.0
2017-Sep-15 03:00N 40°08' W 074°45'0 0.0
2017-Sep-15 02:30N 40°08' W 074°45'0 0.0
2017-Sep-15 02:00N 40°08' W 074°45'0 0.0
2017-Sep-15 01:27N 40°08' W 074°45'0 0.0
2017-Sep-15 01:00N 40°08' W 074°45'0 0.0
2017-Sep-15 00:30N 40°08' W 074°45'0 0.0
2017-Sep-15 00:00N 40°08' W 074°45'0 0.0
2017-Sep-14 23:30N 40°08' W 074°45'0 0.0
2017-Sep-14 23:00N 40°08' W 074°45'0 0.0
2017-Sep-14 22:30N 40°08' W 074°45'0 0.0
2017-Sep-14 22:00N 40°08' W 074°45'0 0.0
2017-Sep-14 21:30N 40°08' W 074°45'0 0.0
2017-Sep-14 21:00N 40°08' W 074°45'0 0.0
2017-Sep-14 20:30N 40°08' W 074°45'0 0.0
2017-Sep-14 20:00N 40°08' W 074°45'0 0.0
2017-Sep-14 19:30N 40°08' W 074°45'0 0.0
2017-Sep-14 19:00N 40°08' W 074°45'0 0.0
2017-Sep-14 18:27N 40°08' W 074°45'0 0.0
2017-Sep-14 18:00N 40°08' W 074°45'0 0.0
2017-Sep-14 17:24N 40°08' W 074°45'0 0.0
2017-Sep-14 17:00N 40°08' W 074°45'0 0.0
2017-Sep-14 16:30N 40°08' W 074°45'0 0.0
2017-Sep-14 16:00N 40°08' W 074°45'0 0.0
2017-Sep-14 15:30N 40°08' W 074°45'0 0.0
2017-Sep-14 15:00N 40°08' W 074°45'0 0.0
2017-Sep-14 14:27N 40°08' W 074°45'0 0.0
2017-Sep-14 14:00N 40°08' W 074°45'0 0.0
2017-Sep-14 13:30N 40°08' W 074°45'0 0.0
2017-Sep-14 13:00N 40°08' W 074°45'0 0.0
2017-Sep-14 12:30N 40°08' W 074°45'0 0.0
2017-Sep-14 12:00N 40°08' W 074°45'0 0.0
2017-Sep-14 11:30N 40°08' W 074°45'0 0.0
2017-Sep-14 11:00N 40°08' W 074°45'0 0.0
2017-Sep-14 10:30N 40°08' W 074°45'0 0.0
2017-Sep-14 10:00N 40°08' W 074°45'0 0.0
2017-Sep-14 09:30N 40°08' W 074°45'0 0.0
2017-Sep-14 09:00N 40°08' W 074°45'0 0.0
2017-Sep-14 08:30N 40°08' W 074°45'0 0.0
2017-Sep-14 08:00N 40°08' W 074°45'0 0.0
2017-Sep-14 07:30N 40°08' W 074°45'0 0.0
2017-Sep-14 07:00N 40°08' W 074°45'0 0.0
2017-Sep-14 06:30N 40°08' W 074°45'0 0.0
2017-Sep-14 06:00N 40°08' W 074°45'0 0.0
2017-Sep-14 05:30N 40°08' W 074°45'0 0.0
2017-Sep-14 05:00N 40°08' W 074°45'0 0.0
2017-Sep-14 04:30N 40°08' W 074°45'0 0.0
2017-Sep-14 04:00N 40°08' W 074°45'0 0.0
2017-Sep-14 03:24N 40°08' W 074°45'0 0.0
2017-Sep-14 03:00N 40°08' W 074°45'0 0.0
2017-Sep-14 02:30N 40°08' W 074°45'0 0.0
2017-Sep-14 02:00N 40°08' W 074°45'0 0.0
2017-Sep-14 01:30N 40°08' W 074°45'0 0.0
2017-Sep-14 01:00N 40°08' W 074°45'0 0.0
2017-Sep-14 00:30N 40°08' W 074°45'0 0.0
2017-Sep-14 00:00N 40°08' W 074°45'0 0.0
2017-Sep-13 23:30N 40°08' W 074°45'0 0.0
2017-Sep-13 23:00N 40°08' W 074°45'0 0.0
2017-Sep-13 22:30N 40°08' W 074°45'0 0.0
2017-Sep-13 22:00N 40°08' W 074°45'0 0.0
2017-Sep-13 21:30N 40°08' W 074°45'0 0.0
2017-Sep-13 21:00N 40°08' W 074°45'0 0.0
2017-Sep-13 20:30N 40°08' W 074°45'0 0.0
2017-Sep-13 20:00N 40°08' W 074°45'0 0.0
2017-Sep-13 19:30N 40°08' W 074°45'0 0.0
2017-Sep-13 18:54N 40°08' W 074°45'0 0.0
2017-Sep-13 18:27N 40°08' W 074°45'0 0.0
2017-Sep-13 18:00N 40°08' W 074°45'0 0.0
2017-Sep-13 17:30N 40°08' W 074°45'0 0.0
2017-Sep-13 16:57N 40°08' W 074°45'0 0.0
2017-Sep-13 16:27N 40°08' W 074°45'0 0.0
2017-Sep-13 15:57N 40°08' W 074°45'0 0.0
2017-Sep-13 15:27N 40°08' W 074°45'0 0.0
2017-Sep-13 15:00N 40°08' W 074°45'0 0.0
2017-Sep-13 14:30N 40°08' W 074°45'0 0.0
2017-Sep-13 13:57N 40°08' W 074°45'0 0.0
2017-Sep-13 13:18N 40°08' W 074°45'0 0.0
2017-Sep-13 13:00N 40°08' W 074°45'0 0.1
2017-Sep-13 12:30N 40°08' W 074°45'0 0.0
2017-Sep-13 12:00N 40°08' W 074°45'0 0.0
2017-Sep-13 11:30N 40°08' W 074°45'0 0.0
2017-Sep-13 11:00N 40°08' W 074°45'0 0.0
2017-Sep-13 10:30N 40°08' W 074°45'0 0.0
2017-Sep-13 10:00N 40°08' W 074°45'0 0.0
2017-Sep-13 09:30N 40°08' W 074°45'0 0.0
2017-Sep-13 09:00N 40°08' W 074°45'0 0.0
2017-Sep-13 08:30N 40°08' W 074°45'0 0.0
2017-Sep-13 08:00N 40°08' W 074°45'0 0.0
2017-Sep-13 07:30N 40°08' W 074°45'0 0.0
2017-Sep-13 07:00N 40°08' W 074°45'0 0.0
2017-Sep-13 06:30N 40°08' W 074°45'0 0.0
2017-Sep-13 06:00N 40°08' W 074°45'0 0.0
2017-Sep-13 05:30N 40°08' W 074°45'0 0.0
2017-Sep-13 05:00N 40°08' W 074°45'0 0.0
2017-Sep-13 04:27N 40°08' W 074°45'0 0.0
2017-Sep-13 04:00N 40°08' W 074°45'0 0.0
2017-Sep-13 03:27N 40°08' W 074°45'0 0.0
2017-Sep-13 02:57N 40°08' W 074°45'0 0.0
2017-Sep-13 02:30N 40°08' W 074°45'0 0.0
2017-Sep-13 02:00N 40°08' W 074°45'0 0.0
2017-Sep-13 01:30N 40°08' W 074°45'0 0.0
2017-Sep-13 01:00N 40°08' W 074°45'0 0.0
2017-Sep-13 00:30N 40°08' W 074°45'0 0.0
2017-Sep-13 00:00N 40°08' W 074°45'0 0.0
2017-Sep-12 23:30N 40°08' W 074°45'0 0.0
2017-Sep-12 22:54N 40°08' W 074°45'0 0.0
2017-Sep-12 22:30N 40°08' W 074°45'0 0.0
2017-Sep-12 22:00N 40°08' W 074°45'0 0.0
2017-Sep-12 21:30N 40°08' W 074°45'0 0.0
2017-Sep-12 21:00N 40°08' W 074°45'0 0.0
2017-Sep-12 20:30N 40°08' W 074°45'0 0.0
2017-Sep-12 20:00N 40°08' W 074°45'0 0.0
2017-Sep-12 19:30N 40°08' W 074°45'0 0.0
2017-Sep-12 19:00N 40°08' W 074°45'0 0.0
2017-Sep-12 18:30N 40°08' W 074°45'0 0.0
2017-Sep-12 18:00N 40°08' W 074°45'0 0.0
2017-Sep-12 17:27N 40°08' W 074°45'0 0.0
2017-Sep-12 17:00N 40°08' W 074°45'0 0.0
2017-Sep-12 15:42N 40°08' W 074°45'0 0.0
2017-Sep-12 15:30N 40°08' W 074°45'0 0.0
2017-Sep-12 15:00N 40°08' W 074°45'0 0.0
2017-Sep-12 14:30N 40°08' W 074°45'0 0.0
2017-Sep-12 14:00N 40°08' W 074°45'0 0.0
2017-Sep-12 13:30N 40°08' W 074°45'0 0.0
2017-Sep-12 13:00N 40°08' W 074°45'0 0.0
2017-Sep-12 12:30N 40°08' W 074°45'0 0.0
2017-Sep-12 09:15N 40°08' W 074°45'0 0.0
2017-Sep-12 08:57N 40°08' W 074°45'0 0.0
2017-Sep-12 08:30N 40°08' W 074°45'0 0.0
2017-Sep-12 08:00N 40°08' W 074°45'0 0.0
2017-Sep-12 07:30N 40°08' W 074°45'0 0.4
2017-Sep-12 07:00N 40°08' W 074°45'2 3.5
2017-Sep-12 06:30N 40°07' W 074°47'2 4.7
2017-Sep-12 06:00N 40°06' W 074°50'4 7.2
2017-Sep-12 05:30N 40°04' W 074°54'4 8.4
2017-Sep-12 05:00N 40°03' W 074°59'5 9.5
2017-Sep-12 04:30N 39°60' W 075°04'1 2.6
2017-Sep-12 03:59N 39°59' W 075°05'0 0.0
2017-Sep-12 03:29N 39°59' W 075°05'0 0.0
2017-Sep-12 02:59N 39°59' W 075°05'0 0.0
2017-Sep-12 02:29N 39°59' W 075°05'0 0.0
2017-Sep-12 01:59N 39°59' W 075°05'0 0.0
2017-Sep-12 01:29N 39°59' W 075°05'0 0.0
2017-Sep-12 00:59N 39°59' W 075°05'0 0.0
2017-Sep-12 00:29N 39°59' W 075°05'0 0.0
2017-Sep-11 23:59N 39°59' W 075°05'0 0.0
2017-Sep-11 23:29N 39°59' W 075°05'0 0.0
2017-Sep-11 22:59N 39°59' W 075°05'0 0.0
2017-Sep-11 22:29N 39°59' W 075°05'0 0.0
2017-Sep-11 21:59N 39°59' W 075°05'0 0.0
2017-Sep-11 21:29N 39°59' W 075°05'0 0.0
2017-Sep-11 20:59N 39°59' W 075°05'0 0.0
2017-Sep-11 20:29N 39°59' W 075°05'0 0.0
2017-Sep-11 19:59N 39°59' W 075°05'0 0.0
2017-Sep-11 19:29N 39°59' W 075°05'0 0.0
2017-Sep-11 18:56N 39°59' W 075°05'0 0.0
2017-Sep-11 18:29N 39°59' W 075°05'0 0.0
2017-Sep-11 17:59N 39°59' W 075°05'0 0.0
2017-Sep-11 17:29N 39°59' W 075°05'0 0.0
2017-Sep-11 16:59N 39°59' W 075°05'0 0.0
2017-Sep-11 16:29N 39°59' W 075°05'0 0.0
2017-Sep-11 15:59N 39°59' W 075°05'0 0.0
2017-Sep-11 15:29N 39°59' W 075°05'  
Track history (hours):
 
Tides and Currents Weather Stations Pressure Air Temp Water Temp Dewpoint Dewpoint Depression Visibility Wind Speed Wind Dir Waves Ship Positions

Ocean Star

Last reported at 2017-Sep-21 15:27 UTC. Time now 2017-Sep-21 15:52 UTC.
Position N 32°06' W 081°06'.

Length 177 m; draft 6.5 m.

Type: Cargo ship. MMSI: 477797100.

Date/timePositionNaut miles runAvg speedWind from/ knotsBaromVisibWave heightAir tempDewpointWater temp
2017-Sep-21 15:27N 32°06' W 081°06'0 0.0
2017-Sep-21 14:57N 32°06' W 081°06'0 0.0
2017-Sep-21 14:27N 32°06' W 081°06'0 0.0
2017-Sep-21 13:57N 32°06' W 081°06'0 0.0
2017-Sep-21 13:27N 32°06' W 081°06'0 0.0
2017-Sep-21 12:57N 32°06' W 081°06'0 0.0
2017-Sep-21 12:27N 32°06' W 081°06'0 0.0
2017-Sep-21 11:57N 32°06' W 081°06'0 0.0
2017-Sep-21 10:45N 32°06' W 081°06'0 0.0
2017-Sep-21 10:21N 32°06' W 081°06'0 0.0
2017-Sep-21 09:45N 32°06' W 081°06'0 0.0
2017-Sep-21 09:27N 32°06' W 081°06'0 0.0
2017-Sep-21 08:57N 32°06' W 081°06'0 0.0
2017-Sep-21 08:27N 32°06' W 081°06'0 0.0
2017-Sep-21 07:57N 32°06' W 081°06'0 0.0
2017-Sep-21 07:27N 32°06' W 081°06'0 0.0
2017-Sep-21 06:45N 32°06' W 081°06'0 0.0
2017-Sep-21 06:27N 32°06' W 081°06'0 0.0
2017-Sep-21 05:57N 32°06' W 081°06'0 0.0
2017-Sep-21 05:21N 32°06' W 081°06'0 0.0
2017-Sep-21 04:57N 32°06' W 081°06'0 0.0
2017-Sep-21 04:21N 32°06' W 081°06'0 0.0
2017-Sep-21 03:51N 32°06' W 081°06'0 0.0
2017-Sep-21 03:27N 32°06' W 081°06'0 0.0
2017-Sep-21 02:57N 32°06' W 081°06'0 0.0
2017-Sep-21 02:27N 32°06' W 081°06'0 0.0
2017-Sep-21 01:57N 32°06' W 081°06'1 1.9
2017-Sep-21 01:31N 32°06' W 081°07'1 2.6
2017-Sep-21 01:00N 32°05' W 081°06'3 5.9
2017-Sep-21 00:31N 32°05' W 081°03'3 6.7
2017-Sep-21 00:01N 32°05' W 080°59'611.7
2017-Sep-20 23:30N 32°02' W 080°52'613.2
2017-Sep-20 23:00N 31°59' W 080°45'5 9.6
2017-Sep-20 22:30N 31°58' W 080°40'611.6
2017-Sep-20 22:00N 31°59' W 080°33'510.9
2017-Sep-20 21:30N 31°59' W 080°27'4 7.6
2017-Sep-20 21:00N 31°59' W 080°22'612.3
2017-Sep-20 20:30N 31°60' W 080°15'714.1
2017-Sep-20 20:00N 32°01' W 080°07'714.3
2017-Sep-20 19:31N 32°03' W 079°59'714.2
2017-Sep-20 19:00N 32°06' W 079°51'914.1
2017-Sep-20 18:24N 32°09' W 079°41'2813.8
2017-Sep-20 16:22N 32°18' W 079°10'513.9
2017-Sep-20 16:00N 32°20' W 079°05'14613.9
2017-Sep-20 05:31N 33°51' W 076°50'013.8
2017-Sep-20 05:30N 33°51' W 076°50'1014.4
2017-Sep-20 04:49N 33°58' W 076°41'514.3
2017-Sep-20 04:30N 34°01' W 076°37'714.1
2017-Sep-20 04:00N 34°06' W 076°30'714.3
2017-Sep-20 03:30N 34°10' W 076°24'714.5
2017-Sep-20 03:00N 34°15' W 076°17'714.4
2017-Sep-20 02:30N 34°20' W 076°11'22412.9
2017-Sep-19 09:05N 37°55' W 074°53'613.0
2017-Sep-19 08:36N 38°01' W 074°51'513.3
2017-Sep-19 08:12N 38°07' W 074°50'314.0
2017-Sep-19 08:00N 38°09' W 074°49'713.7
2017-Sep-19 07:30N 38°16' W 074°47'714.1
2017-Sep-19 07:00N 38°23' W 074°45'612.5
2017-Sep-19 06:28N 38°29' W 074°46'713.1
2017-Sep-19 05:58N 38°35' W 074°51'613.6
2017-Sep-19 05:30N 38°40' W 074°56'714.6
2017-Sep-19 05:00N 38°46' W 075°02'713.4
2017-Sep-19 04:30N 38°52' W 075°05'715.2
2017-Sep-19 04:00N 38°59' W 075°08'714.7
2017-Sep-19 03:30N 39°06' W 075°12'713.9
2017-Sep-19 03:00N 39°12' W 075°17'613.0
2017-Sep-19 02:30N 39°17' W 075°21'612.0
2017-Sep-19 02:00N 39°21' W 075°27'611.6
2017-Sep-19 01:30N 39°26' W 075°32'5 9.8
2017-Sep-19 01:00N 39°30' W 075°33'5 9.8
2017-Sep-19 00:30N 39°35' W 075°34'4 8.8
2017-Sep-19 00:01N 39°40' W 075°32'510.7
2017-Sep-18 23:30N 39°44' W 075°30'5 9.8
2017-Sep-18 23:00N 39°48' W 075°25'5 9.8
2017-Sep-18 22:30N 39°51' W 075°20'510.6
2017-Sep-18 22:00N 39°52' W 075°13'4 8.7
2017-Sep-18 21:30N 39°53' W 075°08'4 7.5
2017-Sep-18 21:00N 39°57' W 075°08'4 8.9
2017-Sep-18 20:30N 39°60' W 075°04'5 9.8
2017-Sep-18 20:00N 40°03' W 074°58'510.3
2017-Sep-18 19:30N 40°05' W 074°52'4 7.8
2017-Sep-18 19:01N 40°08' W 074°49'3 5.3
2017-Sep-18 18:30N 40°08' W 074°45'0 0.5
2017-Sep-18 18:00N 40°08' W 074°45'0 0.0
2017-Sep-18 17:30N 40°08' W 074°45'0 0.0
2017-Sep-18 17:00N 40°08' W 074°45'0 0.0
2017-Sep-18 16:30N 40°08' W 074°45'0 0.0
2017-Sep-18 16:00N 40°08' W 074°45'0 0.0
2017-Sep-18 15:30N 40°08' W 074°45'0 0.0
2017-Sep-18 15:00N 40°08' W 074°45'0 0.0
2017-Sep-18 14:30N 40°08' W 074°45'0 0.0
2017-Sep-18 14:00N 40°08' W 074°45'0 0.0
2017-Sep-18 13:30N 40°08' W 074°45'0 0.0
2017-Sep-18 12:57N 40°08' W 074°45'0 0.0
2017-Sep-18 12:30N 40°08' W 074°45'0 0.0
2017-Sep-18 11:57N 40°08' W 074°45'0 0.0
2017-Sep-18 11:27N 40°08' W 074°45'0 0.0
2017-Sep-18 11:00N 40°08' W 074°45'0 0.0
2017-Sep-18 10:30N 40°08' W 074°45'0 0.0
2017-Sep-18 10:00N 40°08' W 074°45'0 0.0
2017-Sep-18 09:30N 40°08' W 074°45'0 0.0
2017-Sep-18 09:00N 40°08' W 074°45'0 0.0
2017-Sep-18 08:30N 40°08' W 074°45'0 0.0
2017-Sep-18 08:00N 40°08' W 074°45'0 0.0
2017-Sep-18 07:30N 40°08' W 074°45'0 0.0
2017-Sep-18 07:00N 40°08' W 074°45'0 0.0
2017-Sep-18 06:30N 40°08' W 074°45'0 0.0
2017-Sep-18 06:00N 40°08' W 074°45'0 0.0
2017-Sep-18 05:30N 40°08' W 074°45'0 0.0
2017-Sep-18 05:00N 40°08' W 074°45'0 0.0
2017-Sep-18 04:30N 40°08' W 074°45'0 0.0
2017-Sep-18 04:00N 40°08' W 074°45'0 0.0
2017-Sep-18 03:30N 40°08' W 074°45'0 0.0
2017-Sep-18 03:00N 40°08' W 074°45'0 0.0
2017-Sep-18 02:30N 40°08' W 074°45'0 0.0
2017-Sep-18 02:00N 40°08' W 074°45'0 0.0
2017-Sep-18 01:30N 40°08' W 074°45'0 0.0
2017-Sep-18 00:57N 40°08' W 074°45'0 0.0
2017-Sep-18 00:27N 40°08' W 074°45'0 0.0
2017-Sep-18 00:00N 40°08' W 074°45'0 0.0
2017-Sep-17 23:30N 40°08' W 074°45'0 0.0
2017-Sep-17 23:00N 40°08' W 074°45'0 0.0
2017-Sep-17 22:30N 40°08' W 074°45'0 0.0
2017-Sep-17 22:00N 40°08' W 074°45'0 0.0
2017-Sep-17 21:27N 40°08' W 074°45'0 0.0
2017-Sep-17 21:00N 40°08' W 074°45'0 0.0
2017-Sep-17 20:27N 40°08' W 074°45'0 0.0
2017-Sep-17 20:00N 40°08' W 074°45'0 0.0
2017-Sep-17 19:30N 40°08' W 074°45'0 0.0
2017-Sep-17 19:00N 40°08' W 074°45'0 0.0
2017-Sep-17 18:27N 40°08' W 074°45'0 0.0
2017-Sep-17 18:00N 40°08' W 074°45'0 0.0
2017-Sep-17 17:30N 40°08' W 074°45'0 0.0
2017-Sep-17 17:00N 40°08' W 074°45'0 0.0
2017-Sep-17 16:30N 40°08' W 074°45'0 0.0
2017-Sep-17 16:00N 40°08' W 074°45'0 0.0
2017-Sep-17 15:30N 40°08' W 074°45'0 0.0
2017-Sep-17 14:57N 40°08' W 074°45'0 0.0
2017-Sep-17 14:30N 40°08' W 074°45'0 0.0
2017-Sep-17 14:00N 40°08' W 074°45'0 0.0
2017-Sep-17 13:30N 40°08' W 074°45'0 0.0
2017-Sep-17 13:00N 40°08' W 074°45'0 0.0
2017-Sep-17 12:30N 40°08' W 074°45'0 0.0
2017-Sep-17 12:00N 40°08' W 074°45'0 0.0
2017-Sep-17 11:30N 40°08' W 074°45'0 0.0
2017-Sep-17 11:00N 40°08' W 074°45'0 0.0
2017-Sep-17 10:30N 40°08' W 074°45'0 0.0
2017-Sep-17 10:00N 40°08' W 074°45'0 0.0
2017-Sep-17 09:30N 40°08' W 074°45'0 0.0
2017-Sep-17 09:00N 40°08' W 074°45'0 0.0
2017-Sep-17 08:30N 40°08' W 074°45'0 0.0
2017-Sep-17 08:00N 40°08' W 074°45'0 0.0
2017-Sep-17 07:30N 40°08' W 074°45'0 0.0
2017-Sep-17 07:00N 40°08' W 074°45'0 0.0
2017-Sep-17 06:30N 40°08' W 074°45'0 0.0
2017-Sep-17 06:00N 40°08' W 074°45'0 0.0
2017-Sep-17 05:30N 40°08' W 074°45'0 0.0
2017-Sep-17 05:00N 40°08' W 074°45'0 0.0
2017-Sep-17 04:30N 40°08' W 074°45'0 0.0
2017-Sep-17 03:54N 40°08' W 074°45'0 0.0
2017-Sep-17 03:30N 40°08' W 074°45'0 0.0
2017-Sep-17 02:57N 40°08' W 074°45'0 0.0
2017-Sep-17 02:30N 40°08' W 074°45'0 0.0
2017-Sep-17 02:00N 40°08' W 074°45'0 0.0
2017-Sep-17 01:30N 40°08' W 074°45'0 0.0
2017-Sep-17 01:00N 40°08' W 074°45'0 0.0
2017-Sep-17 00:30N 40°08' W 074°45'0 0.0
2017-Sep-17 00:00N 40°08' W 074°45'0 0.0
2017-Sep-16 23:30N 40°08' W 074°45'0 0.0
2017-Sep-16 23:00N 40°08' W 074°45'0 0.0
2017-Sep-16 22:30N 40°08' W 074°45'0 0.0
2017-Sep-16 22:00N 40°08' W 074°45'0 0.0
2017-Sep-16 21:30N 40°08' W 074°45'0 0.0
2017-Sep-16 21:00N 40°08' W 074°45'0 0.0
2017-Sep-16 20:30N 40°08' W 074°45'0 0.0
2017-Sep-16 20:00N 40°08' W 074°45'0 0.0
2017-Sep-16 19:30N 40°08' W 074°45'0 0.0
2017-Sep-16 19:00N 40°08' W 074°45'0 0.0
2017-Sep-16 18:30N 40°08' W 074°45'0 0.0
2017-Sep-16 18:00N 40°08' W 074°45'0 0.0
2017-Sep-16 17:30N 40°08' W 074°45'0 0.0
2017-Sep-16 17:00N 40°08' W 074°45'0 0.0
2017-Sep-16 16:30N 40°08' W 074°45'0 0.0
2017-Sep-16 16:00N 40°08' W 074°45'0 0.0
2017-Sep-16 15:30N 40°08' W 074°45'0 0.0
2017-Sep-16 15:00N 40°08' W 074°45'0 0.0
2017-Sep-16 14:30N 40°08' W 074°45'0 0.0
2017-Sep-16 14:00N 40°08' W 074°45'0 0.0
2017-Sep-16 13:30N 40°08' W 074°45'0 0.0
2017-Sep-16 13:00N 40°08' W 074°45'0 0.0
2017-Sep-16 12:30N 40°08' W 074°45'0 0.0
2017-Sep-16 11:57N 40°08' W 074°45'0 0.0
2017-Sep-16 11:30N 40°08' W 074°45'0 0.0
2017-Sep-16 11:00N 40°08' W 074°45'0 0.0
2017-Sep-16 10:30N 40°08' W 074°45'0 0.0
2017-Sep-16 10:00N 40°08' W 074°45'0 0.0
2017-Sep-16 09:30N 40°08' W 074°45'0 0.0
2017-Sep-16 09:00N 40°08' W 074°45'0 0.0
2017-Sep-16 08:30N 40°08' W 074°45'0 0.0
2017-Sep-16 08:00N 40°08' W 074°45'0 0.0
2017-Sep-16 07:30N 40°08' W 074°45'0 0.0
2017-Sep-16 07:00N 40°08' W 074°45'0 0.0
2017-Sep-16 06:30N 40°08' W 074°45'0 0.0
2017-Sep-16 06:00N 40°08' W 074°45'0 0.0
2017-Sep-16 05:30N 40°08' W 074°45'0 0.0
2017-Sep-16 05:00N 40°08' W 074°45'0 0.0
2017-Sep-16 04:30N 40°08' W 074°45'0 0.0
2017-Sep-16 04:00N 40°08' W 074°45'0 0.0
2017-Sep-16 03:30N 40°08' W 074°45'0 0.0
2017-Sep-16 03:00N 40°08' W 074°45'0 0.0
2017-Sep-16 02:30N 40°08' W 074°45'0 0.0
2017-Sep-16 02:00N 40°08' W 074°45'0 0.0
2017-Sep-16 01:30N 40°08' W 074°45'0 0.0
2017-Sep-16 01:00N 40°08' W 074°45'0 0.0
2017-Sep-16 00:30N 40°08' W 074°45'0 0.0
2017-Sep-15 23:57N 40°08' W 074°45'0 0.0
2017-Sep-15 23:30N 40°08' W 074°45'0 0.0
2017-Sep-15 23:00N 40°08' W 074°45'0 0.0
2017-Sep-15 22:30N 40°08' W 074°45'0 0.0
2017-Sep-15 22:00N 40°08' W 074°45'0 0.0
2017-Sep-15 21:30N 40°08' W 074°45'0 0.0
2017-Sep-15 21:00N 40°08' W 074°45'0 0.0
2017-Sep-15 20:30N 40°08' W 074°45'0 0.0
2017-Sep-15 20:00N 40°08' W 074°45'0 0.0
2017-Sep-15 19:30N 40°08' W 074°45'0 0.0
2017-Sep-15 19:00N 40°08' W 074°45'0 0.0
2017-Sep-15 18:30N 40°08' W 074°45'0 0.0
2017-Sep-15 18:00N 40°08' W 074°45'0 0.0
2017-Sep-15 17:30N 40°08' W 074°45'0 0.0
2017-Sep-15 17:00N 40°08' W 074°45'0 0.0
2017-Sep-15 16:30N 40°08' W 074°45'0 0.0
2017-Sep-15 16:00N 40°08' W 074°45'0 0.0
2017-Sep-15 15:30N 40°08' W 074°45'0 0.0
2017-Sep-15 15:00N 40°08' W 074°45'0 0.0
2017-Sep-15 14:27N 40°08' W 074°45'0 0.0
2017-Sep-15 13:57N 40°08' W 074°45'0 0.0
2017-Sep-15 13:30N 40°08' W 074°45'0 0.0
2017-Sep-15 13:00N 40°08' W 074°45'0 0.0
2017-Sep-15 12:30N 40°08' W 074°45'0 0.0
2017-Sep-15 12:00N 40°08' W 074°45'0 0.0
2017-Sep-15 11:30N 40°08' W 074°45'0 0.0
2017-Sep-15 11:00N 40°08' W 074°45'0 0.0
2017-Sep-15 10:30N 40°08' W 074°45'0 0.0
2017-Sep-15 10:00N 40°08' W 074°45'0 0.0
2017-Sep-15 09:27N 40°08' W 074°45'0 0.0
2017-Sep-15 08:57N 40°08' W 074°45'0 0.0
2017-Sep-15 08:30N 40°08' W 074°45'0 0.0
2017-Sep-15 08:00N 40°08' W 074°45'0 0.0
2017-Sep-15 07:30N 40°08' W 074°45'0 0.0
2017-Sep-15 07:00N 40°08' W 074°45'0 0.0
2017-Sep-15 06:30N 40°08' W 074°45'0 0.0
2017-Sep-15 06:00N 40°08' W 074°45'0 0.0
2017-Sep-15 04:24N 40°08' W 074°45'0 0.0
2017-Sep-15 04:00N 40°08' W 074°45'0 0.0
2017-Sep-15 03:30N 40°08' W 074°45'0 0.0
2017-Sep-15 03:00N 40°08' W 074°45'0 0.0
2017-Sep-15 02:30N 40°08' W 074°45'0 0.0
2017-Sep-15 02:00N 40°08' W 074°45'0 0.0
2017-Sep-15 01:27N 40°08' W 074°45'0 0.0
2017-Sep-15 01:00N 40°08' W 074°45'0 0.0
2017-Sep-15 00:30N 40°08' W 074°45'0 0.0
2017-Sep-15 00:00N 40°08' W 074°45'0 0.0
2017-Sep-14 23:30N 40°08' W 074°45'0 0.0
2017-Sep-14 23:00N 40°08' W 074°45'0 0.0
2017-Sep-14 22:30N 40°08' W 074°45'0 0.0
2017-Sep-14 22:00N 40°08' W 074°45'0 0.0
2017-Sep-14 21:30N 40°08' W 074°45'0 0.0
2017-Sep-14 21:00N 40°08' W 074°45'0 0.0
2017-Sep-14 20:30N 40°08' W 074°45'0 0.0
2017-Sep-14 20:00N 40°08' W 074°45'0 0.0
2017-Sep-14 19:30N 40°08' W 074°45'0 0.0
2017-Sep-14 19:00N 40°08' W 074°45'0 0.0
2017-Sep-14 18:27N 40°08' W 074°45'0 0.0
2017-Sep-14 18:00N 40°08' W 074°45'0 0.0
2017-Sep-14 17:24N 40°08' W 074°45'0 0.0
2017-Sep-14 17:00N 40°08' W 074°45'0 0.0
2017-Sep-14 16:30N 40°08' W 074°45'0 0.0
2017-Sep-14 16:00N 40°08' W 074°45'0 0.0
2017-Sep-14 15:30N 40°08' W 074°45'0 0.0
2017-Sep-14 15:00N 40°08' W 074°45'0 0.0
2017-Sep-14 14:27N 40°08' W 074°45'0 0.0
2017-Sep-14 14:00N 40°08' W 074°45'0 0.0
2017-Sep-14 13:30N 40°08' W 074°45'0 0.0
2017-Sep-14 13:00N 40°08' W 074°45'0 0.0
2017-Sep-14 12:30N 40°08' W 074°45'0 0.0
2017-Sep-14 12:00N 40°08' W 074°45'0 0.0
2017-Sep-14 11:30N 40°08' W 074°45'0 0.0
2017-Sep-14 11:00N 40°08' W 074°45'0 0.0
2017-Sep-14 10:30N 40°08' W 074°45'0 0.0
2017-Sep-14 10:00N 40°08' W 074°45'0 0.0
2017-Sep-14 09:30N 40°08' W 074°45'0 0.0
2017-Sep-14 09:00N 40°08' W 074°45'0 0.0
2017-Sep-14 08:30N 40°08' W 074°45'0 0.0
2017-Sep-14 08:00N 40°08' W 074°45'0 0.0
2017-Sep-14 07:30N 40°08' W 074°45'0 0.0
2017-Sep-14 07:00N 40°08' W 074°45'0 0.0
2017-Sep-14 06:30N 40°08' W 074°45'0 0.0
2017-Sep-14 06:00N 40°08' W 074°45'0 0.0
2017-Sep-14 05:30N 40°08' W 074°45'0 0.0
2017-Sep-14 05:00N 40°08' W 074°45'0 0.0
2017-Sep-14 04:30N 40°08' W 074°45'0 0.0
2017-Sep-14 04:00N 40°08' W 074°45'0 0.0
2017-Sep-14 03:24N 40°08' W 074°45'0 0.0
2017-Sep-14 03:00N 40°08' W 074°45'0 0.0
2017-Sep-14 02:30N 40°08' W 074°45'0 0.0
2017-Sep-14 02:00N 40°08' W 074°45'0 0.0
2017-Sep-14 01:30N 40°08' W 074°45'0 0.0
2017-Sep-14 01:00N 40°08' W 074°45'0 0.0
2017-Sep-14 00:30N 40°08' W 074°45'0 0.0
2017-Sep-14 00:00N 40°08' W 074°45'0 0.0
2017-Sep-13 23:30N 40°08' W 074°45'0 0.0
2017-Sep-13 23:00N 40°08' W 074°45'0 0.0
2017-Sep-13 22:30N 40°08' W 074°45'0 0.0
2017-Sep-13 22:00N 40°08' W 074°45'0 0.0
2017-Sep-13 21:30N 40°08' W 074°45'0 0.0
2017-Sep-13 21:00N 40°08' W 074°45'0 0.0
2017-Sep-13 20:30N 40°08' W 074°45'0 0.0
2017-Sep-13 20:00N 40°08' W 074°45'0 0.0
2017-Sep-13 19:30N 40°08' W 074°45'0 0.0
2017-Sep-13 18:54N 40°08' W 074°45'0 0.0
2017-Sep-13 18:27N 40°08' W 074°45'0 0.0
2017-Sep-13 18:00N 40°08' W 074°45'0 0.0
2017-Sep-13 17:30N 40°08' W 074°45'0 0.0
2017-Sep-13 16:57N 40°08' W 074°45'0 0.0
2017-Sep-13 16:27N 40°08' W 074°45'0 0.0
2017-Sep-13 15:57N 40°08' W 074°45'0 0.0
2017-Sep-13 15:27N 40°08' W 074°45'0 0.0
2017-Sep-13 15:00N 40°08' W 074°45'0 0.0
2017-Sep-13 14:30N 40°08' W 074°45'0 0.0
2017-Sep-13 13:57N 40°08' W 074°45'0 0.0
2017-Sep-13 13:18N 40°08' W 074°45'0 0.0
2017-Sep-13 13:00N 40°08' W 074°45'0 0.1
2017-Sep-13 12:30N 40°08' W 074°45'0 0.0
2017-Sep-13 12:00N 40°08' W 074°45'0 0.0
2017-Sep-13 11:30N 40°08' W 074°45'0 0.0
2017-Sep-13 11:00N 40°08' W 074°45'0 0.0
2017-Sep-13 10:30N 40°08' W 074°45'0 0.0
2017-Sep-13 10:00N 40°08' W 074°45'0 0.0
2017-Sep-13 09:30N 40°08' W 074°45'0 0.0
2017-Sep-13 09:00N 40°08' W 074°45'0 0.0
2017-Sep-13 08:30N 40°08' W 074°45'0 0.0
2017-Sep-13 08:00N 40°08' W 074°45'0 0.0
2017-Sep-13 07:30N 40°08' W 074°45'0 0.0
2017-Sep-13 07:00N 40°08' W 074°45'0 0.0
2017-Sep-13 06:30N 40°08' W 074°45'0 0.0
2017-Sep-13 06:00N 40°08' W 074°45'0 0.0
2017-Sep-13 05:30N 40°08' W 074°45'0 0.0
2017-Sep-13 05:00N 40°08' W 074°45'0 0.0
2017-Sep-13 04:27N 40°08' W 074°45'0 0.0
2017-Sep-13 04:00N 40°08' W 074°45'0 0.0
2017-Sep-13 03:27N 40°08' W 074°45'0 0.0
2017-Sep-13 02:57N 40°08' W 074°45'0 0.0
2017-Sep-13 02:30N 40°08' W 074°45'0 0.0
2017-Sep-13 02:00N 40°08' W 074°45'0 0.0
2017-Sep-13 01:30N 40°08' W 074°45'0 0.0
2017-Sep-13 01:00N 40°08' W 074°45'0 0.0
2017-Sep-13 00:30N 40°08' W 074°45'0 0.0
2017-Sep-13 00:00N 40°08' W 074°45'0 0.0
2017-Sep-12 23:30N 40°08' W 074°45'0 0.0
2017-Sep-12 22:54N 40°08' W 074°45'0 0.0
2017-Sep-12 22:30N 40°08' W 074°45'0 0.0
2017-Sep-12 22:00N 40°08' W 074°45'0 0.0
2017-Sep-12 21:30N 40°08' W 074°45'0 0.0
2017-Sep-12 21:00N 40°08' W 074°45'0 0.0
2017-Sep-12 20:30N 40°08' W 074°45'0 0.0
2017-Sep-12 20:00N 40°08' W 074°45'0 0.0
2017-Sep-12 19:30N 40°08' W 074°45'0 0.0
2017-Sep-12 19:00N 40°08' W 074°45'0 0.0
2017-Sep-12 18:30N 40°08' W 074°45'0 0.0
2017-Sep-12 18:00N 40°08' W 074°45'0 0.0
2017-Sep-12 17:27N 40°08' W 074°45'0 0.0
2017-Sep-12 17:00N 40°08' W 074°45'0 0.0
2017-Sep-12 15:42N 40°08' W 074°45'0 0.0
2017-Sep-12 15:30N 40°08' W 074°45'0 0.0
2017-Sep-12 15:00N 40°08' W 074°45'0 0.0
2017-Sep-12 14:30N 40°08' W 074°45'0 0.0
2017-Sep-12 14:00N 40°08' W 074°45'0 0.0
2017-Sep-12 13:30N 40°08' W 074°45'0 0.0
2017-Sep-12 13:00N 40°08' W 074°45'0 0.0
2017-Sep-12 12:30N 40°08' W 074°45'0 0.0
2017-Sep-12 09:15N 40°08' W 074°45'0 0.0
2017-Sep-12 08:57N 40°08' W 074°45'0 0.0
2017-Sep-12 08:30N 40°08' W 074°45'0 0.0
2017-Sep-12 08:00N 40°08' W 074°45'0 0.0
2017-Sep-12 07:30N 40°08' W 074°45'0 0.4
2017-Sep-12 07:00N 40°08' W 074°45'2 3.5
2017-Sep-12 06:30N 40°07' W 074°47'2 4.7
2017-Sep-12 06:00N 40°06' W 074°50'4 7.2
2017-Sep-12 05:30N 40°04' W 074°54'4 8.4
2017-Sep-12 05:00N 40°03' W 074°59'5 9.5
2017-Sep-12 04:30N 39°60' W 075°04'1 2.6
2017-Sep-12 03:59N 39°59' W 075°05'0 0.0
2017-Sep-12 03:29N 39°59' W 075°05'0 0.0
2017-Sep-12 02:59N 39°59' W 075°05'0 0.0
2017-Sep-12 02:29N 39°59' W 075°05'0 0.0
2017-Sep-12 01:59N 39°59' W 075°05'0 0.0
2017-Sep-12 01:29N 39°59' W 075°05'0 0.0
2017-Sep-12 00:59N 39°59' W 075°05'0 0.0
2017-Sep-12 00:29N 39°59' W 075°05'0 0.0
2017-Sep-11 23:59N 39°59' W 075°05'0 0.0
2017-Sep-11 23:29N 39°59' W 075°05'0 0.0
2017-Sep-11 22:59N 39°59' W 075°05'0 0.0
2017-Sep-11 22:29N 39°59' W 075°05'0 0.0
2017-Sep-11 21:59N 39°59' W 075°05'0 0.0
2017-Sep-11 21:29N 39°59' W 075°05'0 0.0
2017-Sep-11 20:59N 39°59' W 075°05'0 0.0
2017-Sep-11 20:29N 39°59' W 075°05'0 0.0
2017-Sep-11 19:59N 39°59' W 075°05'0 0.0
2017-Sep-11 19:29N 39°59' W 075°05'0 0.0
2017-Sep-11 18:56N 39°59' W 075°05'0 0.0
2017-Sep-11 18:29N 39°59' W 075°05'0 0.0
2017-Sep-11 17:59N 39°59' W 075°05'0 0.0
2017-Sep-11 17:29N 39°59' W 075°05'0 0.0
2017-Sep-11 16:59N 39°59' W 075°05'0 0.0
2017-Sep-11 16:29N 39°59' W 075°05'0 0.0
2017-Sep-11 15:59N 39°59' W 075°05'0 0.0
2017-Sep-11 15:29N 39°59' W 075°05'  

Dump ship's entire track history